createdAt,value
2022-10-22T00:01:54.397Z,99944.56
2022-10-22T00:06:56.210Z,99938.69
2022-10-22T00:11:57.811Z,99919.13
2022-10-22T00:17:01.063Z,99915.09
2022-10-22T00:22:05.669Z,99918.81
2022-10-22T00:27:09.131Z,99916.44
2022-10-22T00:32:11.046Z,99905.59
2022-10-22T00:37:12.686Z,99897.00
2022-10-22T00:42:20.642Z,99897.16
2022-10-22T00:47:23.217Z,99906.41
2022-10-22T00:52:25.182Z,99901.88
2022-10-22T00:57:27.624Z,99896.47
2022-10-22T01:02:29.270Z,99903.56
2022-10-22T01:07:31.309Z,99901.53
2022-10-22T01:12:45.285Z,99904.06
2022-10-22T01:17:55.911Z,99901.22
2022-10-22T01:23:21.353Z,99905.13
2022-10-22T01:28:41.683Z,99903.25
2022-10-22T01:33:44.914Z,99903.78
2022-10-22T01:38:47.184Z,99909.84
2022-10-22T01:43:49.254Z,99910.03
2022-10-22T01:49:03.192Z,99903.31
2022-10-22T01:54:32.027Z,99898.75
2022-10-22T01:59:54.983Z,99901.28
2022-10-22T02:05:24.772Z,99905.84
2022-10-22T02:10:27.434Z,99904.81
2022-10-22T02:15:29.842Z,99893.00
2022-10-22T02:20:33.630Z,99891.31
2022-10-22T02:25:37.198Z,99892.16
2022-10-22T02:30:42.653Z,99873.59
2022-10-22T02:35:44.690Z,99883.38
2022-10-22T02:40:46.707Z,99888.63
2022-10-22T02:45:48.627Z,99888.63
2022-10-22T02:50:50.215Z,99887.63
2022-10-22T02:55:51.801Z,99892.84
2022-10-22T03:00:53.578Z,99880.34
2022-10-22T03:05:55.194Z,99898.59
2022-10-22T03:10:56.782Z,99901.97
2022-10-22T03:15:58.374Z,99895.38
2022-10-22T03:21:32.555Z,99895.22
2022-10-22T03:26:34.276Z,99883.06
2022-10-22T03:31:35.912Z,99901.81
2022-10-22T03:36:38.096Z,99900.97
2022-10-22T03:41:39.695Z,99912.09
2022-10-22T03:46:41.664Z,99907.53
2022-10-22T03:51:43.423Z,99920.03
2022-10-22T03:56:45.053Z,99919.88
2022-10-22T04:01:46.651Z,99909.91
2022-10-22T04:06:48.277Z,99916.00
2022-10-22T04:11:49.895Z,99896.41
2022-10-22T04:16:51.506Z,99901.97
2022-10-22T04:21:53.145Z,99910.06
2022-10-22T04:26:55.535Z,99910.91
2022-10-22T04:31:57.173Z,99921.72
2022-10-22T04:36:58.886Z,99915.66
2022-10-22T04:42:00.560Z,99915.81
2022-10-22T04:47:02.269Z,99912.25
2022-10-22T04:52:03.965Z,99910.91
2022-10-22T04:57:05.608Z,99902.97
2022-10-22T05:02:07.245Z,99909.38
2022-10-22T05:07:08.886Z,99901.44
2022-10-22T05:12:10.498Z,99907.84
2022-10-22T05:17:12.170Z,99908.03
2022-10-22T05:22:13.755Z,99918.81
2022-10-22T05:27:15.368Z,99932.66
2022-10-22T05:32:16.989Z,99927.41
2022-10-22T05:37:18.613Z,99939.38
2022-10-22T05:42:20.187Z,99953.56
2022-10-22T05:47:21.993Z,99937.03
2022-10-22T05:52:24.407Z,99951.91
2022-10-22T05:57:26.011Z,99957.66
2022-10-22T06:02:27.710Z,99963.56
2022-10-22T06:07:29.362Z,99962.41
2022-10-22T06:12:30.969Z,99978.28
2022-10-22T06:17:32.635Z,99986.22
2022-10-22T06:22:34.328Z,99973.56
2022-10-22T06:27:35.917Z,99980.47
2022-10-22T06:32:37.667Z,99973.94
2022-10-22T06:37:39.854Z,99993.53
2022-10-22T06:42:41.952Z,99997.75
2022-10-22T06:47:44.110Z,100010.25
2022-10-22T06:52:45.891Z,100016.66
2022-10-22T06:57:47.530Z,100017.34
2022-10-22T07:02:56.459Z,100030.34
2022-10-22T07:08:00.846Z,100040.84
2022-10-22T07:13:02.555Z,100041.69
2022-10-22T07:18:04.766Z,100055.34
2022-10-22T07:23:06.381Z,100059.75
2022-10-22T07:28:08.230Z,100068.53
2022-10-22T07:33:10.063Z,100072.25
2022-10-22T07:38:11.688Z,100078.66
2022-10-22T07:43:13.272Z,100087.09
2022-10-22T07:48:15.337Z,100096.84
2022-10-22T07:53:17.833Z,100105.41
2022-10-22T07:58:19.937Z,100101.66
2022-10-22T08:03:21.558Z,100103.66
2022-10-22T08:08:25.943Z,100101.81
2022-10-22T08:13:30.715Z,100109.34
2022-10-22T08:18:32.414Z,100113.66
2022-10-22T08:23:34.447Z,100119.59
2022-10-22T08:28:37.171Z,100126.78
2022-10-22T08:33:39.460Z,100120.47
2022-10-22T08:38:41.058Z,100118.66
2022-10-22T08:44:19.824Z,100127.19
2022-10-22T08:49:26.787Z,100121.16
2022-10-22T08:54:37.873Z,100133.88
2022-10-22T08:59:52.792Z,100130.84
2022-10-22T09:05:02.692Z,100134.22
2022-10-22T09:10:06.108Z,100141.66
2022-10-22T09:15:13.592Z,100138.63
2022-10-22T09:20:33.358Z,100140.66
2022-10-22T09:25:37.226Z,100146.22
2022-10-22T09:30:39.933Z,100153.97
2022-10-22T09:35:51.434Z,100150.22
2022-10-22T09:40:55.398Z,100142.00
2022-10-22T09:46:03.110Z,100148.41
2022-10-22T09:51:16.871Z,100139.31
2022-10-22T09:56:29.415Z,100139.75
2022-10-22T10:01:38.616Z,100162.00
2022-10-22T10:06:42.914Z,100163.88
2022-10-22T10:12:02.835Z,100159.59
2022-10-22T10:17:13.523Z,100162.72
2022-10-22T10:22:33.759Z,100175.47
2022-10-22T10:27:38.807Z,100161.97
2022-10-22T10:33:06.089Z,100161.78
2022-10-22T10:38:17.538Z,100161.78
2022-10-22T10:43:29.998Z,100163.66
2022-10-22T10:48:57.032Z,100152.69
2022-10-22T10:53:58.615Z,100153.25
2022-10-22T10:59:10.050Z,100166.78
2022-10-22T11:04:23.835Z,100174.22
2022-10-22T11:09:28.906Z,100188.16
2022-10-22T11:14:37.538Z,100188.56
2022-10-22T11:19:53.775Z,100184.34
2022-10-22T11:25:12.844Z,100188.09
2022-10-22T11:30:20.385Z,100182.84
2022-10-22T11:35:28.330Z,100181.81
2022-10-22T11:40:32.373Z,100177.34
2022-10-22T11:45:37.499Z,100166.81
2022-10-22T11:50:53.041Z,100178.88
2022-10-22T11:56:27.304Z,100170.97
2022-10-22T12:01:41.897Z,100166.91
2022-10-22T12:06:55.381Z,100165.50
2022-10-22T12:12:04.330Z,100167.38
2022-10-22T12:17:12.253Z,100166.13
2022-10-22T12:22:28.166Z,100166.66
2022-10-22T12:27:41.069Z,100168.69
2022-10-22T12:32:42.975Z,100166.47
2022-10-22T12:37:44.989Z,100160.66
2022-10-22T12:42:48.988Z,100160.06
2022-10-22T12:47:53.023Z,100151.03
2022-10-22T12:52:55.696Z,100160.56
2022-10-22T12:57:57.413Z,100159.28
2022-10-22T13:03:01.699Z,100157.25
2022-10-22T13:08:09.077Z,100165.03
2022-10-22T13:13:45.660Z,100161.56
2022-10-22T13:18:48.018Z,100165.16
2022-10-22T13:23:55.126Z,100169.19
2022-10-22T13:29:02.906Z,100168.16
2022-10-22T13:34:11.775Z,100170.47
2022-10-22T13:39:22.968Z,100173.19
2022-10-22T13:44:25.411Z,100176.56
2022-10-22T13:49:29.826Z,100179.94
2022-10-22T13:54:34.899Z,100178.06
2022-10-22T13:59:36.636Z,100176.19
2022-10-22T14:04:40.358Z,100187.97
2022-10-22T14:09:46.860Z,100172.66
2022-10-22T14:14:48.503Z,100183.50
2022-10-22T14:19:50.226Z,100176.56
2022-10-22T14:24:52.552Z,100182.38
2022-10-22T14:29:59.312Z,100188.44
2022-10-22T14:35:03.977Z,100190.31
2022-10-22T14:40:08.698Z,100189.47
2022-10-22T14:45:21.080Z,100189.66
2022-10-22T14:50:26.062Z,100194.47
2022-10-22T14:55:36.366Z,100202.19
2022-10-22T15:00:41.607Z,100196.31
2022-10-22T15:05:46.609Z,100210.00
2022-10-22T15:11:03.759Z,100215.34
2022-10-22T15:16:13.607Z,100210.75
2022-10-22T15:21:17.481Z,100214.84
2022-10-22T15:26:19.114Z,100227.53
2022-10-22T15:31:43.296Z,100222.94
2022-10-22T15:36:44.890Z,100233.03
2022-10-22T15:41:47.322Z,100236.47
2022-10-22T15:46:54.777Z,100246.34
2022-10-22T15:52:20.571Z,100257.47
2022-10-22T15:57:24.263Z,100265.47
2022-10-22T16:02:25.883Z,100268.00
2022-10-22T16:07:27.489Z,100260.63
2022-10-22T16:12:29.276Z,100273.56
2022-10-22T16:17:30.881Z,100278.50
2022-10-22T16:22:33.462Z,100282.38
2022-10-22T16:27:35.122Z,100291.88
2022-10-22T16:32:36.712Z,100294.56
2022-10-22T16:37:39.222Z,100306.19
2022-10-22T16:42:42.489Z,100311.00
2022-10-22T16:47:46.891Z,100322.06
2022-10-22T16:52:48.477Z,100320.22
2022-10-22T16:57:53.467Z,100329.25
2022-10-22T17:02:55.197Z,100336.44
2022-10-22T17:07:56.786Z,100342.03
2022-10-22T17:12:58.437Z,100338.66
2022-10-22T17:18:00.549Z,100354.09
2022-10-22T17:23:02.144Z,100360.59
2022-10-22T17:28:03.853Z,100360.31
2022-10-22T17:33:06.782Z,100358.44
2022-10-22T17:38:10.904Z,100375.38
2022-10-22T17:43:12.495Z,100386.75
2022-10-22T17:48:14.095Z,100394.03
2022-10-22T17:53:15.707Z,100393.84
2022-10-22T17:58:17.634Z,100404.00
2022-10-22T18:03:19.623Z,100412.41
2022-10-22T18:08:24.073Z,100413.25
2022-10-22T18:13:25.785Z,100420.03
2022-10-22T18:18:27.566Z,100430.50
2022-10-22T18:23:29.232Z,100436.09
2022-10-22T18:28:30.865Z,100431.34
2022-10-22T18:33:32.873Z,100432.16
2022-10-22T18:38:34.935Z,100433.66
2022-10-22T18:43:37.068Z,100434.84
2022-10-22T18:48:38.735Z,100433.06
2022-10-22T18:53:40.700Z,100422.91
2022-10-22T18:58:46.107Z,100423.75
2022-10-22T19:03:49.774Z,100432.69
2022-10-22T19:08:51.563Z,100423.50
2022-10-22T19:13:53.955Z,100422.78
2022-10-22T19:19:06.809Z,100431.53
2022-10-22T19:24:09.934Z,100438.44
2022-10-22T19:29:11.684Z,100442.25
2022-10-22T19:34:17.605Z,100450.31
2022-10-22T19:39:19.338Z,100447.91
2022-10-22T19:44:21.004Z,100449.50
2022-10-22T19:49:23.133Z,100454.53
2022-10-22T19:54:28.323Z,100460.19
2022-10-22T19:59:32.078Z,100457.03
2022-10-22T20:04:37.090Z,100465.06
2022-10-22T20:09:38.728Z,100461.44
2022-10-22T20:14:40.469Z,100471.84
2022-10-22T20:19:42.131Z,100472.91
2022-10-22T20:24:44.637Z,100477.00
2022-10-22T20:29:46.244Z,100471.38
2022-10-22T20:34:47.854Z,100480.16
2022-10-22T20:39:50.074Z,100491.81
2022-10-22T20:44:51.657Z,100500.38
2022-10-22T20:49:53.367Z,100500.59
2022-10-22T20:54:54.951Z,100498.00
2022-10-22T20:59:57.494Z,100500.34
2022-10-22T21:04:59.176Z,100501.69
2022-10-22T21:10:00.837Z,100494.38
2022-10-22T21:15:02.531Z,100502.13
2022-10-22T21:20:04.498Z,100500.09
2022-10-22T21:25:06.567Z,100503.81
2022-10-22T21:30:08.566Z,100514.75
2022-10-22T21:35:10.161Z,100514.81
2022-10-22T21:40:12.252Z,100519.31
2022-10-22T21:45:16.455Z,100516.38
2022-10-22T21:50:20.369Z,100524.56
2022-10-22T21:55:24.054Z,100524.03
2022-10-22T22:00:25.940Z,100524.19
2022-10-22T22:05:28.343Z,100536.00
2022-10-22T22:10:30.049Z,100525.28
2022-10-22T22:15:31.701Z,100528.88
2022-10-22T22:20:33.378Z,100520.53
2022-10-22T22:25:35.116Z,100522.16
2022-10-22T22:30:36.830Z,100510.63
2022-10-22T22:40:41.269Z,100528.53
2022-10-22T22:45:42.884Z,100532.00
2022-10-22T22:50:44.529Z,100533.31
2022-10-22T22:55:46.164Z,100535.94
2022-10-22T23:00:48.181Z,100528.59
2022-10-22T23:05:49.905Z,100517.28
2022-10-22T23:10:51.510Z,100514.72
2022-10-22T23:15:53.103Z,100508.47
2022-10-22T23:20:54.705Z,100521.44
2022-10-22T23:25:56.366Z,100517.72
2022-10-22T23:30:58.078Z,100526.56
2022-10-22T23:36:02.973Z,100525.47
2022-10-22T23:41:04.754Z,100530.31
2022-10-22T23:46:08.503Z,100528.75
2022-10-22T23:51:15.234Z,100533.84
2022-10-22T23:56:18.063Z,100539.97
